sensor_id;sensor_type;location;lat;lon;timestamp;temperature;humidity
78896;HTU21D;68284;59.124;37.910;2023-04-30T00:02:10;6.88;62.30
78896;HTU21D;68284;59.124;37.910;2023-04-30T00:04:36;6.86;62.42
78896;HTU21D;68284;59.124;37.910;2023-04-30T00:07:02;6.83;62.56
78896;HTU21D;68284;59.124;37.910;2023-04-30T00:09:29;6.76;62.79
78896;HTU21D;68284;59.124;37.910;2023-04-30T00:11:55;6.70;62.96
78896;HTU21D;68284;59.124;37.910;2023-04-30T00:14:21;6.61;63.30
78896;HTU21D;68284;59.124;37.910;2023-04-30T00:16:48;6.52;63.89
78896;HTU21D;68284;59.124;37.910;2023-04-30T00:19:14;6.41;64.58
78896;HTU21D;68284;59.124;37.910;2023-04-30T00:21:40;6.30;65.24
78896;HTU21D;68284;59.124;37.910;2023-04-30T00:24:07;6.21;65.86
78896;HTU21D;68284;59.124;37.910;2023-04-30T00:26:33;6.13;66.38
78896;HTU21D;68284;59.124;37.910;2023-04-30T00:28:59;6.05;66.86
78896;HTU21D;68284;59.124;37.910;2023-04-30T00:31:25;5.99;67.27
78896;HTU21D;68284;59.124;37.910;2023-04-30T00:33:52;5.91;67.62
78896;HTU21D;68284;59.124;37.910;2023-04-30T00:36:18;5.84;67.92
78896;HTU21D;68284;59.124;37.910;2023-04-30T00:38:44;5.81;68.22
78896;HTU21D;68284;59.124;37.910;2023-04-30T00:41:11;5.75;68.52
78896;HTU21D;68284;59.124;37.910;2023-04-30T00:43:37;5.71;68.83
78896;HTU21D;68284;59.124;37.910;2023-04-30T00:46:04;5.67;68.94
78896;HTU21D;68284;59.124;37.910;2023-04-30T00:48:31;5.66;69.04
78896;HTU21D;68284;59.124;37.910;2023-04-30T00:50:57;5.65;69.10
78896;HTU21D;68284;59.124;37.910;2023-04-30T00:53:23;5.64;69.14
78896;HTU21D;68284;59.124;37.910;2023-04-30T00:55:50;5.63;69.13
78896;HTU21D;68284;59.124;37.910;2023-04-30T00:58:16;5.64;69.03
78896;HTU21D;68284;59.124;37.910;2023-04-30T01:00:43;5.62;68.59
78896;HTU21D;68284;59.124;37.910;2023-04-30T01:03:14;5.62;68.65
78896;HTU21D;68284;59.124;37.910;2023-04-30T01:05:41;5.61;68.63
78896;HTU21D;68284;59.124;37.910;2023-04-30T01:08:08;5.60;68.68
78896;HTU21D;68284;59.124;37.910;2023-04-30T01:10:41;5.60;68.75
78896;HTU21D;68284;59.124;37.910;2023-04-30T01:13:25;5.60;68.75
78896;HTU21D;68284;59.124;37.910;2023-04-30T01:16:22;5.59;68.78
78896;HTU21D;68284;59.124;37.910;2023-04-30T01:18:59;5.60;68.53
78896;HTU21D;68284;59.124;37.910;2023-04-30T01:21:27;5.60;68.46
78896;HTU21D;68284;59.124;37.910;2023-04-30T01:24:17;5.60;68.92
78896;HTU21D;68284;59.124;37.910;2023-04-30T01:27:14;5.60;68.94
78896;HTU21D;68284;59.124;37.910;2023-04-30T01:29:44;5.60;68.62
78896;HTU21D;68284;59.124;37.910;2023-04-30T01:32:10;5.57;68.84
78896;HTU21D;68284;59.124;37.910;2023-04-30T01:34:36;5.57;69.02
78896;HTU21D;68284;59.124;37.910;2023-04-30T01:53:40;5.65;70.00
78896;HTU21D;68284;59.124;37.910;2023-04-30T01:56:28;5.68;70.74
78896;HTU21D;68284;59.124;37.910;2023-04-30T01:58:56;5.72;70.30
78896;HTU21D;68284;59.124;37.910;2023-04-30T02:01:30;5.77;70.63
78896;HTU21D;68284;59.124;37.910;2023-04-30T02:03:56;5.82;70.57
78896;HTU21D;68284;59.124;37.910;2023-04-30T02:06:24;5.89;70.63
78896;HTU21D;68284;59.124;37.910;2023-04-30T02:08:55;5.94;70.67
78896;HTU21D;68284;59.124;37.910;2023-04-30T02:11:27;5.98;70.69
78896;HTU21D;68284;59.124;37.910;2023-04-30T02:13:54;6.04;70.74
78896;HTU21D;68284;59.124;37.910;2023-04-30T02:16:20;6.07;70.71
78896;HTU21D;68284;59.124;37.910;2023-04-30T02:18:47;6.11;70.71
78896;HTU21D;68284;59.124;37.910;2023-04-30T02:21:14;6.13;70.77
78896;HTU21D;68284;59.124;37.910;2023-04-30T02:23:40;6.17;70.81
78896;HTU21D;68284;59.124;37.910;2023-04-30T02:26:07;6.19;70.83
78896;HTU21D;68284;59.124;37.910;2023-04-30T02:28:33;6.22;70.85
78896;HTU21D;68284;59.124;37.910;2023-04-30T02:30:59;6.23;70.88
78896;HTU21D;68284;59.124;37.910;2023-04-30T02:33:25;6.24;70.95
78896;HTU21D;68284;59.124;37.910;2023-04-30T02:35:51;6.25;71.04
78896;HTU21D;68284;59.124;37.910;2023-04-30T02:38:19;6.27;71.10
78896;HTU21D;68284;59.124;37.910;2023-04-30T02:40:46;6.30;71.12
78896;HTU21D;68284;59.124;37.910;2023-04-30T02:43:12;6.35;71.13
78896;HTU21D;68284;59.124;37.910;2023-04-30T02:45:38;6.38;71.13
78896;HTU21D;68284;59.124;37.910;2023-04-30T02:48:04;6.41;71.19
78896;HTU21D;68284;59.124;37.910;2023-04-30T02:50:30;6.43;71.24
78896;HTU21D;68284;59.124;37.910;2023-04-30T02:52:56;6.45;71.31
78896;HTU21D;68284;59.124;37.910;2023-04-30T02:55:23;6.49;71.37
78896;HTU21D;68284;59.124;37.910;2023-04-30T02:57:50;6.52;71.40
78896;HTU21D;68284;59.124;37.910;2023-04-30T03:00:16;6.56;71.39
78896;HTU21D;68284;59.124;37.910;2023-04-30T03:02:42;6.60;71.45
78896;HTU21D;68284;59.124;37.910;2023-04-30T03:05:09;6.64;71.55
78896;HTU21D;68284;59.124;37.910;2023-04-30T03:07:36;6.66;71.66
78896;HTU21D;68284;59.124;37.910;2023-04-30T03:10:02;6.69;71.72
78896;HTU21D;68284;59.124;37.910;2023-04-30T03:12:28;6.74;71.68
78896;HTU21D;68284;59.124;37.910;2023-04-30T03:14:54;6.82;71.66
78896;HTU21D;68284;59.124;37.910;2023-04-30T03:17:20;6.90;71.57
78896;HTU21D;68284;59.124;37.910;2023-04-30T03:19:50;7.00;71.49
78896;HTU21D;68284;59.124;37.910;2023-04-30T03:22:16;7.07;71.38
78896;HTU21D;68284;59.124;37.910;2023-04-30T03:24:45;7.15;71.28
78896;HTU21D;68284;59.124;37.910;2023-04-30T03:27:11;7.24;71.17
78896;HTU21D;68284;59.124;37.910;2023-04-30T03:29:37;7.31;71.06
78896;HTU21D;68284;59.124;37.910;2023-04-30T03:32:03;7.40;70.97
78896;HTU21D;68284;59.124;37.910;2023-04-30T03:34:29;7.50;70.84
78896;HTU21D;68284;59.124;37.910;2023-04-30T03:36:57;7.58;70.67
78896;HTU21D;68284;59.124;37.910;2023-04-30T03:39:23;7.67;70.52
78896;HTU21D;68284;59.124;37.910;2023-04-30T03:41:50;7.75;70.45
78896;HTU21D;68284;59.124;37.910;2023-04-30T03:44:16;7.85;70.33
78896;HTU21D;68284;59.124;37.910;2023-04-30T03:46:43;7.93;70.24
78896;HTU21D;68284;59.124;37.910;2023-04-30T03:49:09;7.99;70.14
78896;HTU21D;68284;59.124;37.910;2023-04-30T03:51:36;8.05;70.11
78896;HTU21D;68284;59.124;37.910;2023-04-30T03:54:05;8.17;70.00
78896;HTU21D;68284;59.124;37.910;2023-04-30T03:56:35;8.26;69.85
78896;HTU21D;68284;59.124;37.910;2023-04-30T03:59:03;8.38;69.63
78896;HTU21D;68284;59.124;37.910;2023-04-30T04:01:31;8.49;69.36
78896;HTU21D;68284;59.124;37.910;2023-04-30T04:03:57;8.60;69.10
78896;HTU21D;68284;59.124;37.910;2023-04-30T04:06:23;8.68;68.85
78896;HTU21D;68284;59.124;37.910;2023-04-30T04:08:50;8.79;68.48
78896;HTU21D;68284;59.124;37.910;2023-04-30T04:11:16;8.87;68.20
78896;HTU21D;68284;59.124;37.910;2023-04-30T04:13:42;8.94;67.93
78896;HTU21D;68284;59.124;37.910;2023-04-30T04:16:09;9.02;67.66
78896;HTU21D;68284;59.124;37.910;2023-04-30T04:18:36;9.10;67.34
78896;HTU21D;68284;59.124;37.910;2023-04-30T04:21:02;9.23;66.93
78896;HTU21D;68284;59.124;37.910;2023-04-30T04:23:30;9.35;66.47
78896;HTU21D;68284;59.124;37.910;2023-04-30T04:25:56;9.45;66.04
78896;HTU21D;68284;59.124;37.910;2023-04-30T04:28:23;9.52;65.69
78896;HTU21D;68284;59.124;37.910;2023-04-30T04:30:50;9.60;65.37
78896;HTU21D;68284;59.124;37.910;2023-04-30T04:33:17;9.69;64.90
78896;HTU21D;68284;59.124;37.910;2023-04-30T04:35:43;9.80;64.41
78896;HTU21D;68284;59.124;37.910;2023-04-30T04:38:11;9.89;64.01
78896;HTU21D;68284;59.124;37.910;2023-04-30T04:40:38;9.98;63.53
78896;HTU21D;68284;59.124;37.910;2023-04-30T04:43:05;10.06;63.06
78896;HTU21D;68284;59.124;37.910;2023-04-30T04:45:32;10.13;62.59
78896;HTU21D;68284;59.124;37.910;2023-04-30T04:47:58;10.24;62.08
78896;HTU21D;68284;59.124;37.910;2023-04-30T04:50:26;10.31;61.67
78896;HTU21D;68284;59.124;37.910;2023-04-30T04:52:53;10.40;61.16
78896;HTU21D;68284;59.124;37.910;2023-04-30T04:55:19;10.48;60.64
78896;HTU21D;68284;59.124;37.910;2023-04-30T04:57:46;10.57;60.22
78896;HTU21D;68284;59.124;37.910;2023-04-30T05:00:12;10.67;59.77
78896;HTU21D;68284;59.124;37.910;2023-04-30T05:02:38;10.77;59.19
78896;HTU21D;68284;59.124;37.910;2023-04-30T05:05:05;10.85;58.64
78896;HTU21D;68284;59.124;37.910;2023-04-30T05:07:32;10.96;58.21
78896;HTU21D;68284;59.124;37.910;2023-04-30T05:09:59;11.02;57.67
78896;HTU21D;68284;59.124;37.910;2023-04-30T05:12:25;11.12;57.10
78896;HTU21D;68284;59.124;37.910;2023-04-30T05:14:52;11.20;56.40
78896;HTU21D;68284;59.124;37.910;2023-04-30T05:17:18;11.29;55.50
78896;HTU21D;68284;59.124;37.910;2023-04-30T05:19:44;11.36;54.44
78896;HTU21D;68284;59.124;37.910;2023-04-30T05:22:12;11.41;53.75
78896;HTU21D;68284;59.124;37.910;2023-04-30T05:24:39;11.47;53.20
78896;HTU21D;68284;59.124;37.910;2023-04-30T05:27:05;11.53;52.96
78896;HTU21D;68284;59.124;37.910;2023-04-30T05:29:32;11.63;52.70
78896;HTU21D;68284;59.124;37.910;2023-04-30T05:31:58;11.79;52.27
78896;HTU21D;68284;59.124;37.910;2023-04-30T05:34:24;11.94;51.77
78896;HTU21D;68284;59.124;37.910;2023-04-30T05:36:50;12.04;51.44
78896;HTU21D;68284;59.124;37.910;2023-04-30T05:39:16;12.14;51.26
78896;HTU21D;68284;59.124;37.910;2023-04-30T05:41:42;12.21;51.02
78896;HTU21D;68284;59.124;37.910;2023-04-30T05:44:08;12.28;50.75
78896;HTU21D;68284;59.124;37.910;2023-04-30T05:46:34;12.32;50.42
78896;HTU21D;68284;59.124;37.910;2023-04-30T05:49:01;12.35;49.89
78896;HTU21D;68284;59.124;37.910;2023-04-30T05:51:27;12.38;49.53
78896;HTU21D;68284;59.124;37.910;2023-04-30T05:53:54;12.44;49.21
78896;HTU21D;68284;59.124;37.910;2023-04-30T05:56:22;12.50;48.80
78896;HTU21D;68284;59.124;37.910;2023-04-30T05:58:49;12.59;48.37
78896;HTU21D;68284;59.124;37.910;2023-04-30T06:01:19;12.71;47.95
78896;HTU21D;68284;59.124;37.910;2023-04-30T06:03:46;12.75;47.34
78896;HTU21D;68284;59.124;37.910;2023-04-30T06:06:12;12.78;46.73
78896;HTU21D;68284;59.124;37.910;2023-04-30T06:08:38;12.73;46.26
78896;HTU21D;68284;59.124;37.910;2023-04-30T06:11:06;12.74;45.75
78896;HTU21D;68284;59.124;37.910;2023-04-30T06:13:33;12.74;45.16
78896;HTU21D;68284;59.124;37.910;2023-04-30T06:15:59;12.72;44.49
78896;HTU21D;68284;59.124;37.910;2023-04-30T06:18:25;12.69;44.00
78896;HTU21D;68284;59.124;37.910;2023-04-30T06:20:51;12.72;43.86
78896;HTU21D;68284;59.124;37.910;2023-04-30T06:23:17;12.77;43.81
78896;HTU21D;68284;59.124;37.910;2023-04-30T06:25:43;12.84;43.79
78896;HTU21D;68284;59.124;37.910;2023-04-30T06:28:10;12.95;43.60
78896;HTU21D;68284;59.124;37.910;2023-04-30T06:30:36;13.10;43.24
78896;HTU21D;68284;59.124;37.910;2023-04-30T06:33:02;13.23;42.78
78896;HTU21D;68284;59.124;37.910;2023-04-30T06:35:28;13.32;43.16
78896;HTU21D;68284;59.124;37.910;2023-04-30T06:37:54;13.37;42.57
78896;HTU21D;68284;59.124;37.910;2023-04-30T06:40:20;13.34;42.26
78896;HTU21D;68284;59.124;37.910;2023-04-30T06:42:46;13.33;42.13
78896;HTU21D;68284;59.124;37.910;2023-04-30T06:45:12;13.31;41.55
78896;HTU21D;68284;59.124;37.910;2023-04-30T06:47:40;13.23;41.06
78896;HTU21D;68284;59.124;37.910;2023-04-30T06:50:07;13.19;40.92
78896;HTU21D;68284;59.124;37.910;2023-04-30T06:52:34;13.21;40.73
78896;HTU21D;68284;59.124;37.910;2023-04-30T06:55:00;13.25;40.63
78896;HTU21D;68284;59.124;37.910;2023-04-30T06:57:27;13.27;40.17
78896;HTU21D;68284;59.124;37.910;2023-04-30T06:59:53;13.27;39.84
78896;HTU21D;68284;59.124;37.910;2023-04-30T07:02:20;13.24;39.39
78896;HTU21D;68284;59.124;37.910;2023-04-30T07:04:48;13.21;39.22
78896;HTU21D;68284;59.124;37.910;2023-04-30T07:07:14;13.20;39.02
78896;HTU21D;68284;59.124;37.910;2023-04-30T07:09:40;13.21;38.98
78896;HTU21D;68284;59.124;37.910;2023-04-30T07:12:07;13.22;38.63
78896;HTU21D;68284;59.124;37.910;2023-04-30T07:14:34;13.26;38.33
78896;HTU21D;68284;59.124;37.910;2023-04-30T07:17:00;13.30;37.96
78896;HTU21D;68284;59.124;37.910;2023-04-30T07:19:27;13.32;37.94
78896;HTU21D;68284;59.124;37.910;2023-04-30T07:21:53;13.38;37.73
78896;HTU21D;68284;59.124;37.910;2023-04-30T07:24:19;13.37;37.06
78896;HTU21D;68284;59.124;37.910;2023-04-30T07:26:45;13.38;37.08
78896;HTU21D;68284;59.124;37.910;2023-04-30T07:29:11;13.46;37.51
78896;HTU21D;68284;59.124;37.910;2023-04-30T07:31:37;13.52;37.38
78896;HTU21D;68284;59.124;37.910;2023-04-30T07:34:03;13.59;37.03
78896;HTU21D;68284;59.124;37.910;2023-04-30T07:36:29;13.63;36.79
78896;HTU21D;68284;59.124;37.910;2023-04-30T07:38:57;13.66;36.47
78896;HTU21D;68284;59.124;37.910;2023-04-30T07:41:24;13.68;35.96
78896;HTU21D;68284;59.124;37.910;2023-04-30T07:43:50;13.68;35.66
78896;HTU21D;68284;59.124;37.910;2023-04-30T07:46:17;13.65;35.58
78896;HTU21D;68284;59.124;37.910;2023-04-30T07:48:43;13.70;35.62
78896;HTU21D;68284;59.124;37.910;2023-04-30T07:51:09;13.80;35.55
78896;HTU21D;68284;59.124;37.910;2023-04-30T07:53:36;13.89;35.14
78896;HTU21D;68284;59.124;37.910;2023-04-30T07:56:02;13.90;34.47
78896;HTU21D;68284;59.124;37.910;2023-04-30T07:58:28;13.88;34.20
78896;HTU21D;68284;59.124;37.910;2023-04-30T08:00:54;13.83;33.97
78896;HTU21D;68284;59.124;37.910;2023-04-30T08:03:20;13.80;34.05
78896;HTU21D;68284;59.124;37.910;2023-04-30T08:05:46;13.84;34.38
78896;HTU21D;68284;59.124;37.910;2023-04-30T08:08:13;13.89;33.78
78896;HTU21D;68284;59.124;37.910;2023-04-30T08:10:39;13.92;33.60
78896;HTU21D;68284;59.124;37.910;2023-04-30T08:13:06;13.96;33.25
78896;HTU21D;68284;59.124;37.910;2023-04-30T08:15:33;14.01;33.05
78896;HTU21D;68284;59.124;37.910;2023-04-30T08:17:59;14.05;32.53
78896;HTU21D;68284;59.124;37.910;2023-04-30T08:20:25;14.05;32.29
78896;HTU21D;68284;59.124;37.910;2023-04-30T08:22:52;14.10;31.96
78896;HTU21D;68284;59.124;37.910;2023-04-30T08:25:18;14.12;32.00
78896;HTU21D;68284;59.124;37.910;2023-04-30T08:27:45;14.15;32.02
78896;HTU21D;68284;59.124;37.910;2023-04-30T08:30:11;14.21;32.01
78896;HTU21D;68284;59.124;37.910;2023-04-30T08:32:37;14.25;31.86
78896;HTU21D;68284;59.124;37.910;2023-04-30T08:35:04;14.25;31.60
78896;HTU21D;68284;59.124;37.910;2023-04-30T08:37:31;14.28;31.41
78896;HTU21D;68284;59.124;37.910;2023-04-30T08:39:57;14.29;31.30
78896;HTU21D;68284;59.124;37.910;2023-04-30T08:42:25;14.33;30.95
78896;HTU21D;68284;59.124;37.910;2023-04-30T08:44:54;14.33;30.67
78896;HTU21D;68284;59.124;37.910;2023-04-30T08:47:20;14.32;30.46
78896;HTU21D;68284;59.124;37.910;2023-04-30T08:49:47;14.36;30.48
78896;HTU21D;68284;59.124;37.910;2023-04-30T08:52:13;14.42;30.39
78896;HTU21D;68284;59.124;37.910;2023-04-30T08:54:41;14.42;30.03
78896;HTU21D;68284;59.124;37.910;2023-04-30T08:57:07;14.43;29.87
78896;HTU21D;68284;59.124;37.910;2023-04-30T08:59:33;14.42;29.61
78896;HTU21D;68284;59.124;37.910;2023-04-30T09:01:59;14.41;29.00
78896;HTU21D;68284;59.124;37.910;2023-04-30T09:04:26;14.38;29.49
78896;HTU21D;68284;59.124;37.910;2023-04-30T09:06:53;14.37;29.36
78896;HTU21D;68284;59.124;37.910;2023-04-30T09:09:29;14.38;29.14
78896;HTU21D;68284;59.124;37.910;2023-04-30T09:12:17;14.39;28.77
78896;HTU21D;68284;59.124;37.910;2023-04-30T09:17:25;14.45;29.16
78896;HTU21D;68284;59.124;37.910;2023-04-30T09:19:52;14.53;29.29
78896;HTU21D;68284;59.124;37.910;2023-04-30T09:22:22;14.63;29.02
78896;HTU21D;68284;59.124;37.910;2023-04-30T09:24:50;14.75;29.13
78896;HTU21D;68284;59.124;37.910;2023-04-30T09:27:18;14.87;28.71
78896;HTU21D;68284;59.124;37.910;2023-04-30T09:29:45;14.91;28.68
78896;HTU21D;68284;59.124;37.910;2023-04-30T09:32:11;14.95;28.61
78896;HTU21D;68284;59.124;37.910;2023-04-30T09:34:39;14.96;28.33
78896;HTU21D;68284;59.124;37.910;2023-04-30T09:37:05;15.03;28.03
78896;HTU21D;68284;59.124;37.910;2023-04-30T09:39:32;15.12;28.07
78896;HTU21D;68284;59.124;37.910;2023-04-30T09:42:09;15.29;27.91
78896;HTU21D;68284;59.124;37.910;2023-04-30T09:44:37;15.31;27.66
78896;HTU21D;68284;59.124;37.910;2023-04-30T09:47:04;15.30;27.45
78896;HTU21D;68284;59.124;37.910;2023-04-30T09:49:30;15.29;27.68
78896;HTU21D;68284;59.124;37.910;2023-04-30T09:51:59;15.33;27.65
78896;HTU21D;68284;59.124;37.910;2023-04-30T09:54:27;15.32;27.75
78896;HTU21D;68284;59.124;37.910;2023-04-30T09:56:55;15.31;27.80
78896;HTU21D;68284;59.124;37.910;2023-04-30T09:59:29;15.32;27.86
78896;HTU21D;68284;59.124;37.910;2023-04-30T10:02:01;15.30;27.89
78896;HTU21D;68284;59.124;37.910;2023-04-30T10:04:29;15.30;28.26
78896;HTU21D;68284;59.124;37.910;2023-04-30T10:06:57;15.31;28.49
78896;HTU21D;68284;59.124;37.910;2023-04-30T10:09:33;15.33;28.68
78896;HTU21D;68284;59.124;37.910;2023-04-30T10:12:02;15.37;28.93
78896;HTU21D;68284;59.124;37.910;2023-04-30T10:14:32;15.46;28.84
78896;HTU21D;68284;59.124;37.910;2023-04-30T10:17:07;15.58;28.71
78896;HTU21D;68284;59.124;37.910;2023-04-30T10:19:39;15.68;28.53
78896;HTU21D;68284;59.124;37.910;2023-04-30T10:22:07;15.82;28.51
78896;HTU21D;68284;59.124;37.910;2023-04-30T10:24:34;15.98;28.28
78896;HTU21D;68284;59.124;37.910;2023-04-30T10:27:01;16.13;28.26
78896;HTU21D;68284;59.124;37.910;2023-04-30T10:29:28;16.31;28.28
78896;HTU21D;68284;59.124;37.910;2023-04-30T10:31:54;16.54;28.23
78896;HTU21D;68284;59.124;37.910;2023-04-30T10:36:59;16.98;27.48
78896;HTU21D;68284;59.124;37.910;2023-04-30T10:39:27;17.14;27.36
78896;HTU21D;68284;59.124;37.910;2023-04-30T10:42:01;17.37;27.16
78896;HTU21D;68284;59.124;37.910;2023-04-30T10:44:31;17.63;26.70
78896;HTU21D;68284;59.124;37.910;2023-04-30T10:47:02;17.80;26.07
78896;HTU21D;68284;59.124;37.910;2023-04-30T10:49:29;17.96;26.25
78896;HTU21D;68284;59.124;37.910;2023-04-30T10:51:59;18.22;25.66
78896;HTU21D;68284;59.124;37.910;2023-04-30T10:54:28;18.44;25.36
78896;HTU21D;68284;59.124;37.910;2023-04-30T10:57:08;18.70;25.14
78896;HTU21D;68284;59.124;37.910;2023-04-30T10:59:36;19.01;25.29
78896;HTU21D;68284;59.124;37.910;2023-04-30T11:02:02;19.36;25.02
78896;HTU21D;68284;59.124;37.910;2023-04-30T11:04:28;19.76;24.75
78896;HTU21D;68284;59.124;37.910;2023-04-30T11:07:07;20.09;24.14
78896;HTU21D;68284;59.124;37.910;2023-04-30T11:09:39;20.43;24.17
78896;HTU21D;68284;59.124;37.910;2023-04-30T11:12:14;20.76;23.85
78896;HTU21D;68284;59.124;37.910;2023-04-30T11:14:43;21.05;23.94
78896;HTU21D;68284;59.124;37.910;2023-04-30T11:17:21;21.32;23.51
78896;HTU21D;68284;59.124;37.910;2023-04-30T11:19:50;21.49;23.25
78896;HTU21D;68284;59.124;37.910;2023-04-30T11:22:23;21.75;22.83
78896;HTU21D;68284;59.124;37.910;2023-04-30T11:25:04;21.85;22.59
78896;HTU21D;68284;59.124;37.910;2023-04-30T11:27:32;21.79;22.23
78896;HTU21D;68284;59.124;37.910;2023-04-30T11:29:59;21.57;22.32
78896;HTU21D;68284;59.124;37.910;2023-04-30T11:32:32;21.54;22.53
78896;HTU21D;68284;59.124;37.910;2023-04-30T11:35:03;21.82;22.44
78896;HTU21D;68284;59.124;37.910;2023-04-30T11:37:31;21.98;22.14
78896;HTU21D;68284;59.124;37.910;2023-04-30T11:40:08;22.10;21.91
78896;HTU21D;68284;59.124;37.910;2023-04-30T11:42:36;22.11;21.77
78896;HTU21D;68284;59.124;37.910;2023-04-30T11:45:11;22.12;21.79
78896;HTU21D;68284;59.124;37.910;2023-04-30T11:47:45;22.05;21.50
78896;HTU21D;68284;59.124;37.910;2023-04-30T11:50:17;21.80;21.77
78896;HTU21D;68284;59.124;37.910;2023-04-30T11:52:51;21.68;22.15
78896;HTU21D;68284;59.124;37.910;2023-04-30T11:55:21;21.92;22.12
78896;HTU21D;68284;59.124;37.910;2023-04-30T11:57:49;22.33;21.68
78896;HTU21D;68284;59.124;37.910;2023-04-30T12:00:17;22.68;21.20
78896;HTU21D;68284;59.124;37.910;2023-04-30T12:02:46;22.85;20.95
78896;HTU21D;68284;59.124;37.910;2023-04-30T12:07:50;22.75;20.86
78896;HTU21D;68284;59.124;37.910;2023-04-30T12:10:20;22.76;20.62
78896;HTU21D;68284;59.124;37.910;2023-04-30T12:12:48;22.72;20.54
78896;HTU21D;68284;59.124;37.910;2023-04-30T12:15:16;22.56;20.79
78896;HTU21D;68284;59.124;37.910;2023-04-30T12:17:44;22.42;20.91
78896;HTU21D;68284;59.124;37.910;2023-04-30T12:20:14;22.31;20.88
78896;HTU21D;68284;59.124;37.910;2023-04-30T12:22:42;22.13;20.92
78896;HTU21D;68284;59.124;37.910;2023-04-30T12:25:14;21.92;21.17
78896;HTU21D;68284;59.124;37.910;2023-04-30T12:27:50;21.83;21.42
78896;HTU21D;68284;59.124;37.910;2023-04-30T12:30:21;21.84;21.39
78896;HTU21D;68284;59.124;37.910;2023-04-30T12:32:50;21.92;21.57
78896;HTU21D;68284;59.124;37.910;2023-04-30T12:35:19;22.05;21.50
78896;HTU21D;68284;59.124;37.910;2023-04-30T12:37:50;22.16;21.45
78896;HTU21D;68284;59.124;37.910;2023-04-30T12:40:19;22.27;21.41
78896;HTU21D;68284;59.124;37.910;2023-04-30T12:42:46;22.35;21.14
78896;HTU21D;68284;59.124;37.910;2023-04-30T12:48:12;22.19;21.11
78896;HTU21D;68284;59.124;37.910;2023-04-30T12:50:39;22.13;21.24
78896;HTU21D;68284;59.124;37.910;2023-04-30T12:53:05;22.13;21.24
78896;HTU21D;68284;59.124;37.910;2023-04-30T12:55:35;22.14;21.34
78896;HTU21D;68284;59.124;37.910;2023-04-30T13:00:47;22.34;21.18
78896;HTU21D;68284;59.124;37.910;2023-04-30T13:03:15;22.50;21.30
78896;HTU21D;68284;59.124;37.910;2023-04-30T13:05:48;22.71;21.05
78896;HTU21D;68284;59.124;37.910;2023-04-30T13:08:15;22.88;20.85
78896;HTU21D;68284;59.124;37.910;2023-04-30T13:10:43;22.88;20.71
78896;HTU21D;68284;59.124;37.910;2023-04-30T13:13:11;22.93;20.76
78896;HTU21D;68284;59.124;37.910;2023-04-30T13:15:38;22.99;20.63
78896;HTU21D;68284;59.124;37.910;2023-04-30T13:18:06;22.98;20.55
78896;HTU21D;68284;59.124;37.910;2023-04-30T13:20:35;22.96;20.57
78896;HTU21D;68284;59.124;37.910;2023-04-30T13:23:01;22.78;20.48
78896;HTU21D;68284;59.124;37.910;2023-04-30T13:25:29;22.50;20.62
78896;HTU21D;68284;59.124;37.910;2023-04-30T13:27:55;22.19;20.81
78896;HTU21D;68284;59.124;37.910;2023-04-30T13:30:22;21.98;21.18
78896;HTU21D;68284;59.124;37.910;2023-04-30T13:32:48;21.90;21.55
78896;HTU21D;68284;59.124;37.910;2023-04-30T13:35:15;21.92;21.60
78896;HTU21D;68284;59.124;37.910;2023-04-30T13:37:41;21.99;21.74
78896;HTU21D;68284;59.124;37.910;2023-04-30T13:40:08;22.01;21.62
78896;HTU21D;68284;59.124;37.910;2023-04-30T13:42:37;22.02;21.34
78896;HTU21D;68284;59.124;37.910;2023-04-30T13:45:05;21.89;21.27
78896;HTU21D;68284;59.124;37.910;2023-04-30T13:47:32;21.83;21.45
78896;HTU21D;68284;59.124;37.910;2023-04-30T13:50:04;21.74;21.58
78896;HTU21D;68284;59.124;37.910;2023-04-30T13:52:34;21.70;21.95
78896;HTU21D;68284;59.124;37.910;2023-04-30T13:55:00;21.76;21.95
78896;HTU21D;68284;59.124;37.910;2023-04-30T13:57:27;21.78;21.98
78896;HTU21D;68284;59.124;37.910;2023-04-30T13:59:54;21.85;21.95
78896;HTU21D;68284;59.124;37.910;2023-04-30T14:02:21;21.87;21.86
78896;HTU21D;68284;59.124;37.910;2023-04-30T14:04:47;21.78;22.02
78896;HTU21D;68284;59.124;37.910;2023-04-30T14:07:13;21.74;22.05
78896;HTU21D;68284;59.124;37.910;2023-04-30T14:09:40;21.58;22.20
78896;HTU21D;68284;59.124;37.910;2023-04-30T14:12:06;21.43;22.31
78896;HTU21D;68284;59.124;37.910;2023-04-30T14:14:32;21.28;22.43
78896;HTU21D;68284;59.124;37.910;2023-04-30T14:16:58;21.07;22.66
78896;HTU21D;68284;59.124;37.910;2023-04-30T14:19:25;20.73;22.83
78896;HTU21D;68284;59.124;37.910;2023-04-30T14:21:51;20.32;23.47
78896;HTU21D;68284;59.124;37.910;2023-04-30T14:24:17;19.99;23.79
78896;HTU21D;68284;59.124;37.910;2023-04-30T14:26:44;19.56;24.37
78896;HTU21D;68284;59.124;37.910;2023-04-30T14:29:11;19.29;24.81
78896;HTU21D;68284;59.124;37.910;2023-04-30T14:31:37;18.99;25.17
78896;HTU21D;68284;59.124;37.910;2023-04-30T14:34:03;18.69;25.61
78896;HTU21D;68284;59.124;37.910;2023-04-30T14:36:30;18.48;26.04
78896;HTU21D;68284;59.124;37.910;2023-04-30T14:38:56;18.39;26.39
78896;HTU21D;68284;59.124;37.910;2023-04-30T14:41:22;18.38;26.67
78896;HTU21D;68284;59.124;37.910;2023-04-30T14:43:48;18.37;26.62
78896;HTU21D;68284;59.124;37.910;2023-04-30T14:46:14;18.25;26.74
78896;HTU21D;68284;59.124;37.910;2023-04-30T14:48:40;18.10;26.97
78896;HTU21D;68284;59.124;37.910;2023-04-30T14:51:06;17.91;27.07
78896;HTU21D;68284;59.124;37.910;2023-04-30T14:53:32;17.81;27.29
78896;HTU21D;68284;59.124;37.910;2023-04-30T14:55:59;17.68;27.67
78896;HTU21D;68284;59.124;37.910;2023-04-30T14:58:26;17.56;28.05
78896;HTU21D;68284;59.124;37.910;2023-04-30T15:00:53;17.56;28.23
78896;HTU21D;68284;59.124;37.910;2023-04-30T15:03:19;17.63;28.19
78896;HTU21D;68284;59.124;37.910;2023-04-30T15:05:46;17.63;28.30
78896;HTU21D;68284;59.124;37.910;2023-04-30T15:08:13;17.67;28.47
78896;HTU21D;68284;59.124;37.910;2023-04-30T15:10:39;17.65;28.43
78896;HTU21D;68284;59.124;37.910;2023-04-30T15:13:06;17.72;28.61
78896;HTU21D;68284;59.124;37.910;2023-04-30T15:15:32;17.79;28.52
78896;HTU21D;68284;59.124;37.910;2023-04-30T15:17:59;17.88;28.61
78896;HTU21D;68284;59.124;37.910;2023-04-30T15:20:26;17.92;28.71
78896;HTU21D;68284;59.124;37.910;2023-04-30T15:22:52;17.94;28.70
78896;HTU21D;68284;59.124;37.910;2023-04-30T15:25:22;17.93;28.82
78896;HTU21D;68284;59.124;37.910;2023-04-30T15:27:49;17.96;29.10
78896;HTU21D;68284;59.124;37.910;2023-04-30T15:30:19;18.14;29.10
78896;HTU21D;68284;59.124;37.910;2023-04-30T15:32:47;18.38;28.96
78896;HTU21D;68284;59.124;37.910;2023-04-30T15:35:13;18.53;28.93
78896;HTU21D;68284;59.124;37.910;2023-04-30T15:37:40;18.64;29.15
78896;HTU21D;68284;59.124;37.910;2023-04-30T15:40:06;18.72;29.25